createdAt,value
2023-02-22T00:01:51.265Z,6.27
2023-02-22T00:06:55.313Z,6.47
2023-02-22T00:11:58.952Z,6.43
2023-02-22T00:17:01.429Z,6.87
2023-02-22T00:22:05.252Z,3.87
2023-02-22T00:27:07.581Z,5.23
2023-02-22T00:32:09.685Z,4.50
2023-02-22T00:37:13.585Z,4.57
2023-02-22T00:42:16.124Z,4.83
2023-02-22T00:47:18.125Z,4.43
2023-02-22T00:52:21.562Z,4.77
2023-02-22T00:57:23.759Z,5.77
2023-02-22T01:02:26.029Z,6.40
2023-02-22T01:07:29.863Z,5.83
2023-02-22T01:12:32.382Z,5.00
2023-02-22T01:17:34.622Z,4.87
2023-02-22T01:22:38.737Z,4.67
2023-02-22T01:27:40.927Z,4.63
2023-02-22T01:32:43.813Z,4.23
2023-02-22T01:37:47.453Z,2.67
2023-02-22T01:42:52.474Z,2.73
2023-02-22T01:47:54.598Z,3.17
2023-02-22T01:52:58.515Z,3.83
2023-02-22T01:58:01.245Z,3.53
2023-02-22T02:03:06.634Z,3.30
2023-02-22T02:08:18.431Z,3.77
2023-02-22T02:13:21.337Z,3.60
2023-02-22T02:18:24.220Z,3.53
2023-02-22T02:24:11.263Z,3.10
2023-02-22T02:29:57.874Z,4.07
2023-02-22T02:35:08.090Z,5.13
2023-02-22T02:40:18.931Z,4.67
2023-02-22T02:45:26.233Z,5.13
2023-02-22T02:50:34.949Z,4.60
2023-02-22T02:55:38.555Z,5.00
2023-02-22T03:00:43.358Z,4.80
2023-02-22T03:06:29.514Z,7.20
2023-02-22T03:11:41.426Z,5.00
2023-02-22T03:16:47.942Z,5.10
2023-02-22T03:21:58.497Z,4.97
2023-02-22T03:27:04.159Z,4.60
2023-02-22T03:32:11.933Z,4.40
2023-02-22T03:37:19.276Z,3.93
2023-02-22T03:42:25.402Z,5.10
2023-02-22T03:47:36.460Z,5.27
2023-02-22T03:52:40.974Z,4.60
2023-02-22T03:57:47.636Z,4.80
2023-02-22T04:02:49.760Z,5.77
2023-02-22T04:07:53.420Z,4.93
2023-02-22T04:12:55.883Z,4.43
2023-02-22T04:17:58.166Z,4.23
2023-02-22T04:23:01.543Z,5.17
2023-02-22T04:28:04.193Z,5.60
2023-02-22T04:33:05.994Z,5.03
2023-02-22T04:38:10.975Z,5.07
2023-02-22T04:43:12.944Z,5.13
2023-02-22T04:48:15.430Z,5.13
2023-02-22T04:53:19.262Z,5.27
2023-02-22T04:58:22.091Z,4.07
2023-02-22T05:03:24.632Z,4.40
2023-02-22T05:08:28.163Z,3.73
2023-02-22T05:13:30.573Z,3.80
2023-02-22T05:18:32.380Z,4.00
2023-02-22T05:23:35.792Z,4.10
2023-02-22T05:28:38.021Z,4.67
2023-02-22T05:33:40.568Z,4.60
2023-02-22T05:38:45.046Z,4.70
2023-02-22T05:43:49.320Z,4.53
2023-02-22T05:49:09.184Z,4.33
2023-02-22T05:54:13.079Z,4.50
2023-02-22T05:59:15.048Z,4.50
2023-02-22T06:04:18.210Z,5.50
2023-02-22T06:09:22.063Z,5.77
2023-02-22T06:14:24.554Z,6.50
2023-02-22T06:19:27.162Z,6.20
2023-02-22T06:24:30.878Z,6.60
2023-02-22T06:29:33.034Z,6.10
2023-02-22T06:34:35.248Z,6.27
2023-02-22T06:39:38.672Z,6.17
2023-02-22T06:44:40.563Z,7.50
2023-02-22T06:49:43.027Z,6.40
2023-02-22T06:54:46.616Z,5.50
2023-02-22T06:59:48.851Z,6.50
2023-02-22T07:04:51.067Z,6.73
2023-02-22T07:09:54.973Z,6.90
2023-02-22T07:14:57.684Z,6.57
2023-02-22T07:19:59.996Z,8.23
2023-02-22T07:25:03.264Z,9.43
2023-02-22T07:30:06.544Z,9.63
2023-02-22T07:35:15.146Z,9.93
2023-02-22T07:40:19.487Z,9.33
2023-02-22T07:45:22.215Z,9.90
2023-02-22T07:50:26.151Z,9.97
2023-02-22T07:55:31.827Z,8.60
2023-02-22T08:00:35.967Z,9.20
2023-02-22T08:05:39.845Z,8.90
2023-02-22T08:10:44.286Z,7.97
2023-02-22T08:15:47.357Z,6.27
2023-02-22T08:20:52.098Z,5.53
2023-02-22T08:25:56.444Z,4.80
2023-02-22T08:30:58.896Z,5.83
2023-02-22T08:36:01.823Z,7.03
2023-02-22T08:41:05.506Z,6.73
2023-02-22T08:46:08.359Z,6.63
2023-02-22T08:51:10.504Z,7.10
2023-02-22T08:56:14.419Z,6.20
2023-02-22T09:01:24.799Z,6.87
2023-02-22T09:06:34.386Z,7.23
2023-02-22T09:11:37.908Z,7.63
2023-02-22T09:16:40.013Z,7.97
2023-02-22T09:21:42.477Z,8.50
2023-02-22T09:26:53.583Z,8.33
2023-02-22T09:31:57.817Z,8.27
2023-02-22T09:37:00.031Z,9.23
2023-02-22T09:42:10.854Z,8.10
2023-02-22T09:47:19.340Z,7.30
2023-02-22T09:52:27.936Z,7.63
2023-02-22T09:57:35.975Z,6.40
2023-02-22T10:02:45.635Z,5.33
2023-02-22T10:07:55.040Z,5.57
2023-02-22T10:13:07.245Z,4.95
2023-02-22T10:18:33.988Z,5.50
2023-02-22T10:23:42.988Z,5.00
2023-02-22T10:28:55.449Z,4.60
2023-02-22T10:34:02.234Z,5.32
2023-02-22T10:39:18.026Z,4.95
2023-02-22T10:44:21.395Z,5.25
2023-02-22T10:49:26.027Z,4.93
2023-02-22T10:54:32.984Z,5.28
2023-02-22T10:59:38.769Z,6.65
2023-02-22T11:04:50.879Z,5.70
2023-02-22T11:09:55.925Z,4.97
2023-02-22T11:15:19.001Z,4.95
2023-02-22T11:20:25.666Z,3.88
2023-02-22T11:25:31.299Z,3.40
2023-02-22T11:30:36.872Z,3.35
2023-02-22T11:35:49.927Z,3.35
2023-02-22T11:41:18.677Z,4.22
2023-02-22T11:46:26.420Z,4.15
2023-02-22T11:51:50.348Z,4.57
2023-02-22T11:56:56.024Z,3.45
2023-02-22T12:02:05.315Z,4.07
2023-02-22T12:07:25.421Z,3.88
2023-02-22T12:12:37.192Z,2.90
2023-02-22T12:17:59.998Z,2.75
2023-02-22T12:23:14.312Z,4.05
2023-02-22T12:28:25.051Z,5.03
2023-02-22T12:33:32.876Z,3.85
2023-02-22T12:38:41.426Z,3.50
2023-02-22T12:43:48.454Z,3.88
2023-02-22T12:48:56.041Z,4.25
2023-02-22T12:54:07.745Z,4.78
2023-02-22T12:59:19.472Z,6.93
2023-02-22T13:04:23.472Z,6.28
2023-02-22T13:10:01.740Z,6.53
2023-02-22T13:15:13.607Z,7.50
2023-02-22T13:20:24.483Z,7.20
2023-02-22T13:25:34.845Z,7.55
2023-02-22T13:30:40.397Z,8.32
2023-02-22T13:36:08.800Z,7.65
2023-02-22T13:41:44.764Z,9.10
2023-02-22T13:47:39.465Z,9.50
2023-02-22T13:52:44.444Z,10.50
2023-02-22T13:57:50.028Z,10.88
2023-02-22T14:03:02.543Z,9.82
2023-02-22T14:08:06.931Z,11.75
2023-02-22T14:13:09.395Z,12.00
2023-02-22T14:18:18.440Z,11.07
2023-02-22T14:23:36.057Z,10.40
2023-02-22T14:28:42.506Z,11.10
2023-02-22T14:34:10.554Z,10.02
2023-02-22T14:39:21.183Z,10.35
2023-02-22T14:44:29.347Z,9.93
2023-02-22T14:49:37.428Z,10.60
2023-02-22T14:55:04.580Z,10.68
2023-02-22T15:00:20.285Z,10.25
2023-02-22T15:05:22.346Z,10.50
2023-02-22T15:10:30.545Z,10.13
2023-02-22T15:15:33.109Z,9.90
2023-02-22T15:20:38.579Z,10.40
2023-02-22T15:25:48.485Z,10.68
2023-02-22T15:30:50.463Z,10.27
2023-02-22T15:35:57.312Z,9.82
2023-02-22T15:41:08.572Z,10.23
2023-02-22T15:46:11.201Z,9.93
2023-02-22T15:51:17.291Z,9.80
2023-02-22T15:56:27.328Z,10.40
2023-02-22T16:01:29.913Z,10.50
2023-02-22T16:06:35.548Z,10.60
2023-02-22T16:11:43.501Z,9.30
2023-02-22T16:16:45.834Z,10.17
2023-02-22T16:21:58.531Z,10.00
2023-02-22T16:27:09.455Z,11.27
2023-02-22T16:32:12.126Z,11.10
2023-02-22T16:37:24.302Z,13.17
2023-02-22T16:42:28.893Z,12.43
2023-02-22T16:47:31.874Z,12.10
2023-02-22T16:52:34.340Z,12.50
2023-02-22T16:57:40.685Z,13.47
2023-02-22T17:02:45.206Z,12.43
2023-02-22T17:07:49.572Z,11.87
2023-02-22T17:12:54.600Z,12.93
2023-02-22T17:17:58.920Z,12.57
2023-02-22T17:23:03.970Z,13.47
2023-02-22T17:28:10.690Z,13.10
2023-02-22T17:33:17.337Z,12.80
2023-02-22T17:38:23.666Z,14.00
2023-02-22T17:43:29.652Z,14.77
2023-02-22T17:48:33.460Z,14.73
2023-02-22T17:53:37.135Z,16.00
2023-02-22T17:58:45.478Z,16.80
2023-02-22T18:03:48.814Z,15.83
2023-02-22T18:14:30.225Z,15.07
2023-02-22T18:19:34.057Z,14.77
2023-02-22T18:24:39.164Z,14.00
2023-02-22T18:29:44.326Z,13.70
2023-02-22T18:34:48.867Z,13.20
2023-02-22T18:39:53.337Z,12.93
2023-02-22T18:45:03.475Z,13.93
2023-02-22T18:50:09.651Z,25.43
2023-02-22T18:55:15.506Z,13.53
2023-02-22T19:00:24.919Z,12.63
2023-02-22T19:05:27.686Z,11.30
2023-02-22T19:10:31.399Z,13.17
2023-02-22T19:15:45.832Z,11.33
2023-02-22T19:20:58.481Z,17.13
2023-02-22T19:26:03.507Z,13.87
2023-02-22T19:31:20.475Z,15.37
2023-02-22T19:36:34.071Z,15.87
2023-02-22T19:41:38.991Z,16.97
2023-02-22T19:46:46.198Z,17.53
2023-02-22T19:51:52.472Z,18.57
2023-02-22T19:56:59.199Z,17.47
2023-02-22T20:02:05.795Z,16.53
2023-02-22T20:07:11.164Z,15.33
2023-02-22T20:12:16.311Z,15.80
2023-02-22T20:17:22.175Z,15.80
2023-02-22T20:22:26.963Z,15.63
2023-02-22T20:27:32.020Z,15.70
2023-02-22T20:32:40.362Z,15.33
2023-02-22T20:37:44.616Z,14.10
2023-02-22T20:42:49.545Z,16.13
2023-02-22T20:47:55.293Z,15.10
2023-02-22T20:53:01.351Z,15.37
2023-02-22T20:58:05.895Z,16.13
2023-02-22T21:03:11.611Z,16.63
2023-02-22T21:08:17.412Z,18.13
2023-02-22T21:13:25.358Z,17.03
2023-02-22T21:18:31.058Z,16.20
2023-02-22T21:23:35.940Z,15.97
2023-02-22T21:28:50.896Z,16.30
2023-02-22T21:33:58.087Z,15.53
2023-02-22T21:39:09.230Z,16.53
2023-02-22T21:44:31.860Z,17.47
2023-02-22T21:50:23.889Z,15.83
2023-02-22T21:55:48.698Z,15.37
2023-02-22T22:00:51.222Z,16.13
2023-02-22T22:05:54.964Z,16.90
2023-02-22T22:10:58.382Z,16.00
2023-02-22T22:16:05.057Z,16.33
2023-02-22T22:21:11.494Z,16.83
2023-02-22T22:26:14.141Z,16.57
2023-02-22T22:31:19.672Z,16.10
2023-02-22T22:36:25.044Z,17.27
2023-02-22T22:41:29.101Z,16.60
2023-02-22T22:46:31.872Z,16.33
2023-02-22T22:51:36.141Z,16.60
2023-02-22T22:56:39.579Z,16.17
2023-02-22T23:01:44.931Z,15.93
2023-02-22T23:06:50.893Z,15.83
2023-02-22T23:11:56.669Z,16.60
2023-02-22T23:17:03.747Z,16.03
2023-02-22T23:22:07.597Z,17.30
2023-02-22T23:27:11.005Z,16.67
2023-02-22T23:32:14.408Z,16.53
2023-02-22T23:37:20.907Z,17.07
2023-02-22T23:42:23.263Z,17.17
2023-02-22T23:47:25.462Z,16.43
2023-02-22T23:52:30.089Z,16.77
2023-02-22T23:57:36.953Z,15.87
